Pride Of Burgundy — MQSQ9 — position and weather

sailwx.info

Track history (hours):
 
Tides and Currents Weather Stations Pressure Air Temp Water Temp Dewpoint Dewpoint Depression Visibility Wind Speed Wind Dir Waves Ship Positions

Pride Of Burgundy

Operator: P & O Ferries

Last reported at 2017-Oct-20 19:31 UTC. Time now 2017-Oct-20 19:52 UTC.
Position N 51°04' E 001°35'.

Length 180 m; draft 6.2 m.

Type: Passenger vessel. MMSI: 232001470.

Date/timePositionNaut miles runAvg speedWind from/ knotsBaromVisibWave heightAir tempDewpointWater temp
2017-Oct-20 19:31N 51°04' E 001°35'918.8
2017-Oct-20 19:00N 50°58' E 001°47'3 5.5
2017-Oct-20 18:30N 50°58' E 001°51'1 1.3
2017-Oct-20 18:00N 50°58' E 001°50'815.1
2017-Oct-20 17:30N 51°00' E 001°38'918.3
2017-Oct-20 17:00N 51°07' E 001°29'510.7
2017-Oct-20 16:30N 51°07' E 001°20'0 0.2
2017-Oct-20 16:00N 51°07' E 001°20'0 0.0
2017-Oct-20 15:30N 51°07' E 001°20'2 4.2
2017-Oct-20 15:00N 51°08' E 001°23'9 9.3
2017-Oct-20 14:00N 51°02' E 001°35'815.9
2017-Oct-20 13:31N 50°58' E 001°46'3 6.8
2017-Oct-20 13:00N 50°58' E 001°51'0 0.0
2017-Oct-20 12:30N 50°58' E 001°51'2 3.2
2017-Oct-20 12:01N 50°58' E 001°49'5 9.7
2017-Oct-20 11:30N 50°59' E 001°41'2 4.0
2017-Oct-20 11:01N 51°01' E 001°41'917.7
2017-Oct-20 10:30N 51°03' E 001°28'612.6
2017-Oct-20 10:00N 51°07' E 001°20'0 0.0
2017-Oct-20 09:30N 51°07' E 001°20'0 0.2
2017-Oct-20 09:01N 51°07' E 001°20'4 7.1
2017-Oct-20 08:31N 51°08' E 001°26'2 3.1
2017-Oct-20 08:01N 51°06' E 001°26'612.4
2017-Oct-20 07:31N 51°03' E 001°34'816.8
2017-Oct-20 07:01N 50°58' E 001°45'4 7.6
2017-Oct-20 06:31N 50°58' E 001°51'0 0.0
2017-Oct-20 06:01N 50°58' E 001°51'1 2.0
2017-Oct-20 05:31N 50°58' E 001°49'815.9
2017-Oct-20 05:00N 50°59' E 001°37'817.0
2017-Oct-20 04:30N 51°04' E 001°26'5 9.9
2017-Oct-20 04:00N 51°07' E 001°20'0 0.0
2017-Oct-20 03:29N 51°07' E 001°20'2 3.3
2017-Oct-20 03:00N 51°07' E 001°23'611.7
2017-Oct-20 02:31N 51°05' E 001°31'816.6
2017-Oct-20 02:00N 51°00' E 001°42'612.1
2017-Oct-20 01:30N 50°58' E 001°51'0 0.1
2017-Oct-20 01:00N 50°58' E 001°51'0 0.0
2017-Oct-20 00:30N 50°58' E 001°51'0 0.0
2017-Oct-20 00:00N 50°58' E 001°51'0 0.0
2017-Oct-19 23:30N 50°58' E 001°51'0 0.0
2017-Oct-19 23:00N 50°58' E 001°51'0 0.0
2017-Oct-19 22:30N 50°58' E 001°51'0 0.0
2017-Oct-19 22:00N 50°58' E 001°51'0 0.0
2017-Oct-19 21:30N 50°58' E 001°51'0 0.0
2017-Oct-19 21:00N 50°58' E 001°51'0 0.0
2017-Oct-19 20:30N 50°58' E 001°51'0 0.0
2017-Oct-19 20:00N 50°58' E 001°51'0 0.8
2017-Oct-19 19:31N 50°58' E 001°51'816.2
2017-Oct-19 19:01N 50°59' E 001°38'918.0
2017-Oct-19 18:31N 51°04' E 001°26'5 9.0
2017-Oct-19 17:59N 51°07' E 001°20'0 0.0
2017-Oct-19 17:30N 51°07' E 001°20'3 6.2
2017-Oct-19 17:01N 51°06' E 001°24'1019.4
2017-Oct-19 16:31N 51°01' E 001°37'917.8
2017-Oct-19 16:00N 50°58' E 001°51'0 0.3
2017-Oct-19 15:30N 50°58' E 001°51'1 2.4
2017-Oct-19 15:00N 50°58' E 001°49'918.6
2017-Oct-19 14:30N 50°59' E 001°34'918.6
2017-Oct-19 14:00N 51°06' E 001°23'3 5.6
2017-Oct-19 13:30N 51°07' E 001°20'0 0.0
2017-Oct-19 12:59N 51°07' E 001°20'510.0
2017-Oct-19 12:31N 51°07' E 001°28'918.3
2017-Oct-19 12:01N 51°01' E 001°38'815.9
2017-Oct-19 11:30N 50°58' E 001°50'0 1.0
2017-Oct-19 11:00N 50°58' E 001°51'0 0.0
2017-Oct-19 10:30N 50°58' E 001°51'714.7
2017-Oct-19 10:00N 50°58' E 001°39'918.1
2017-Oct-19 09:30N 51°04' E 001°29'712.9
2017-Oct-19 09:00N 51°07' E 001°20'0 0.0
2017-Oct-19 08:30N 51°07' E 001°20'0 0.3
2017-Oct-19 08:00N 51°07' E 001°20'917.6
2017-Oct-19 07:30N 51°03' E 001°33'1019.6
2017-Oct-19 07:00N 50°58' E 001°46'3 6.9
2017-Oct-19 06:30N 50°58' E 001°51'0 0.0
2017-Oct-19 06:00N 50°58' E 001°51'3 5.1
2017-Oct-19 05:31N 50°58' E 001°47'816.5
2017-Oct-19 05:00N 51°00' E 001°34'918.9
2017-Oct-19 04:30N 51°06' E 001°23'2 4.0
2017-Oct-19 04:00N 51°07' E 001°20'0 0.0
2017-Oct-19 03:30N 51°07' E 001°20'0 0.1
2017-Oct-19 03:00N 51°07' E 001°20'713.8
2017-Oct-19 02:31N 51°05' E 001°30'816.3
2017-Oct-19 02:01N 50°60' E 001°41'713.2
2017-Oct-19 01:31N 50°58' E 001°51'0 0.3
2017-Oct-19 01:00N 50°58' E 001°51'0 0.0
2017-Oct-19 00:30N 50°58' E 001°51'0 0.0
2017-Oct-19 00:00N 50°58' E 001°51'0 0.0
2017-Oct-18 23:30N 50°58' E 001°51'0 0.0
2017-Oct-18 23:00N 50°58' E 001°51'0 0.0
2017-Oct-18 22:30N 50°58' E 001°51'0 0.6
2017-Oct-18 22:00N 50°58' E 001°51'0 0.0
2017-Oct-18 21:30N 50°58' E 001°51'0 0.0
2017-Oct-18 21:00N 50°58' E 001°51'0 0.0
2017-Oct-18 20:30N 50°58' E 001°51'0 0.2
2017-Oct-18 20:00N 50°58' E 001°51'4 8.4
2017-Oct-18 19:30N 50°58' E 001°45'713.3
2017-Oct-18 19:01N 50°59' E 001°34'816.9
2017-Oct-18 18:31N 51°05' E 001°25'4 7.4
2017-Oct-18 18:00N 51°07' E 001°20'0 0.0
2017-Oct-18 17:30N 51°07' E 001°20'4 7.7
2017-Oct-18 17:00N 51°06' E 001°26'1019.7
2017-Oct-18 16:30N 51°02' E 001°40'815.8
2017-Oct-18 16:01N 50°58' E 001°51'0 0.2
2017-Oct-18 15:30N 50°58' E 001°51'0 0.9
2017-Oct-18 15:00N 50°58' E 001°50'1616.4
2017-Oct-18 14:01N 51°05' E 001°26'5 9.6
2017-Oct-18 13:30N 51°07' E 001°20'0 0.0
2017-Oct-18 13:00N 51°07' E 001°20'3 5.9
2017-Oct-18 12:30N 51°06' E 001°24'918.3
2017-Oct-18 12:00N 51°02' E 001°37'816.7
2017-Oct-18 11:30N 50°58' E 001°49'1 2.5
2017-Oct-18 11:00N 50°58' E 001°51'0 0.0
2017-Oct-18 10:30N 50°58' E 001°51'815.2
2017-Oct-18 10:00N 50°59' E 001°39'1019.2
2017-Oct-18 09:30N 51°05' E 001°27'5 9.6
2017-Oct-18 09:00N 51°07' E 001°20'0 0.0
2017-Oct-18 08:29N 51°07' E 001°20'0 0.3
2017-Oct-18 08:00N 51°07' E 001°20'917.1
2017-Oct-18 07:30N 51°03' E 001°32'1020.0
2017-Oct-18 07:01N 50°58' E 001°46'3 6.8
2017-Oct-18 06:30N 50°58' E 001°51'0 0.0
2017-Oct-18 06:00N 50°58' E 001°51'2 4.8
2017-Oct-18 05:30N 50°58' E 001°47'816.2
2017-Oct-18 05:00N 51°00' E 001°35'918.4
2017-Oct-18 04:30N 51°06' E 001°24'3 5.3
2017-Oct-18 04:00N 51°07' E 001°20'0 0.0
2017-Oct-18 03:30N 51°07' E 001°20'0 0.0
2017-Oct-18 03:00N 51°07' E 001°20'510.6
2017-Oct-18 02:31N 51°06' E 001°28'918.0
2017-Oct-18 02:01N 50°60' E 001°39'815.3
2017-Oct-18 01:31N 50°58' E 001°51'0 0.4
2017-Oct-18 01:01N 50°58' E 001°51'0 0.0
2017-Oct-18 00:30N 50°58' E 001°51'0 0.0
2017-Oct-18 00:00N 50°58' E 001°51'0 0.0
2017-Oct-17 23:30N 50°58' E 001°51'0 0.0
2017-Oct-17 23:01N 50°58' E 001°51'0 0.0
2017-Oct-17 22:30N 50°58' E 001°51'0 0.0
2017-Oct-17 22:00N 50°58' E 001°51'0 0.0
2017-Oct-17 21:31N 50°58' E 001°51'0 0.0
2017-Oct-17 21:01N 50°58' E 001°51'0 0.0
2017-Oct-17 20:30N 50°58' E 001°51'1 0.7
2017-Oct-17 19:31N 50°58' E 001°50'918.6
2017-Oct-17 19:00N 50°59' E 001°35'918.6
2017-Oct-17 18:30N 51°04' E 001°23'4 7.4
2017-Oct-17 18:00N 51°07' E 001°20'0 0.0
2017-Oct-17 17:29N 51°07' E 001°20'510.7
2017-Oct-17 17:00N 51°05' E 001°28'1019.8
2017-Oct-17 16:31N 50°60' E 001°40'713.8
2017-Oct-17 16:01N 50°58' E 001°51'0 0.0
2017-Oct-17 15:31N 50°58' E 001°51'1 2.2
2017-Oct-17 15:00N 50°58' E 001°49'917.6
2017-Oct-17 14:30N 51°01' E 001°36'1019.7
2017-Oct-17 14:00N 51°05' E 001°22'2 4.8
2017-Oct-17 13:30N 51°07' E 001°20'0 0.0
2017-Oct-17 13:00N 51°07' E 001°20'4 8.3
2017-Oct-17 12:31N 51°07' E 001°27'816.6
2017-Oct-17 12:01N 51°02' E 001°37'816.9
2017-Oct-17 11:31N 50°58' E 001°49'1 2.8
2017-Oct-17 11:00N 50°58' E 001°51'0 0.0
2017-Oct-17 10:30N 50°58' E 001°51'612.1
2017-Oct-17 10:00N 50°59' E 001°41'1019.5
2017-Oct-17 09:30N 51°04' E 001°28'611.7
2017-Oct-17 08:58N 51°07' E 001°20'0 0.0
2017-Oct-17 08:30N 51°07' E 001°20'1 1.9
2017-Oct-17 08:00N 51°07' E 001°22'918.0
2017-Oct-17 07:30N 51°03' E 001°34'918.1
2017-Oct-17 07:00N 50°58' E 001°46'3 5.9
2017-Oct-17 06:30N 50°58' E 001°51'0 0.0
2017-Oct-17 06:00N 50°58' E 001°51'3 5.3
2017-Oct-17 05:30N 50°58' E 001°47'816.5
2017-Oct-17 05:00N 50°59' E 001°34'1019.2
2017-Oct-17 04:30N 51°06' E 001°23'2 4.4
2017-Oct-17 04:00N 51°07' E 001°20'0 0.0
2017-Oct-17 03:30N 51°07' E 001°20'0 0.2
2017-Oct-17 03:00N 51°07' E 001°20'817.1
2017-Oct-17 02:30N 51°04' E 001°32'816.1
2017-Oct-17 02:00N 50°59' E 001°43'510.3
2017-Oct-17 01:30N 50°58' E 001°51'0 0.0
2017-Oct-17 01:00N 50°58' E 001°51'0 0.0
2017-Oct-17 00:30N 50°58' E 001°51'0 0.0
2017-Oct-17 00:00N 50°58' E 001°51'0 0.0
2017-Oct-16 23:30N 50°58' E 001°51'0 0.0
2017-Oct-16 23:00N 50°58' E 001°51'0 0.0
2017-Oct-16 22:30N 50°58' E 001°51'0 0.0
2017-Oct-16 22:00N 50°58' E 001°51'0 0.0
2017-Oct-16 21:30N 50°58' E 001°51'0 0.0
2017-Oct-16 21:00N 50°58' E 001°51'0 0.0
2017-Oct-16 20:30N 50°58' E 001°51'0 0.0
2017-Oct-16 20:00N 50°58' E 001°51'2 4.5
2017-Oct-16 19:30N 50°58' E 001°47'1019.8
2017-Oct-16 19:00N 51°02' E 001°33'1018.1
2017-Oct-16 18:28N 51°07' E 001°20'0 0.4
2017-Oct-16 18:01N 51°07' E 001°20'0 0.2
2017-Oct-16 17:30N 51°07' E 001°20'816.3
2017-Oct-16 17:01N 51°03' E 001°31'1019.2
2017-Oct-16 16:31N 50°58' E 001°44'4 8.3
2017-Oct-16 16:00N 50°58' E 001°51'0 0.0
2017-Oct-16 15:30N 50°58' E 001°51'510.4
2017-Oct-16 15:00N 50°58' E 001°43'918.7
2017-Oct-16 14:31N 51°03' E 001°30'8 7.8
2017-Oct-16 13:30N 51°07' E 001°20'0 0.0
2017-Oct-16 12:58N 51°07' E 001°20'3 7.6
2017-Oct-16 12:31N 51°06' E 001°25'1019.1
2017-Oct-16 12:01N 51°01' E 001°38'816.8
2017-Oct-16 11:30N 50°58' E 001°51'0 0.5
2017-Oct-16 11:00N 50°58' E 001°51'0 0.0
2017-Oct-16 10:30N 50°58' E 001°51'816.5
2017-Oct-16 10:00N 50°58' E 001°38'918.0
2017-Oct-16 09:30N 51°04' E 001°27'611.5
2017-Oct-16 09:00N 51°07' E 001°20'0 0.0
2017-Oct-16 08:30N 51°07' E 001°20'4 8.9
2017-Oct-16 08:00N 51°07' E 001°27'918.2
2017-Oct-16 07:31N 51°03' E 001°40'816.0
2017-Oct-16 07:00N 50°58' E 001°50'1 1.7
2017-Oct-16 06:30N 50°58' E 001°52'0 0.0
2017-Oct-16 06:00N 50°58' E 001°52'0 0.0
2017-Oct-16 05:30N 50°58' E 001°52'0 0.0
2017-Oct-16 05:00N 50°58' E 001°52'0 0.0
2017-Oct-16 04:30N 50°58' E 001°52'0 0.0
2017-Oct-16 04:00N 50°58' E 001°52'0 0.0
2017-Oct-16 03:31N 50°58' E 001°52'0 0.0
2017-Oct-16 03:00N 50°58' E 001°52'0 0.0
2017-Oct-16 02:30N 50°58' E 001°52'0 0.0
2017-Oct-16 02:00N 50°58' E 001°52'0 0.0
2017-Oct-16 01:30N 50°58' E 001°52'0 0.0
2017-Oct-16 01:00N 50°58' E 001°52'0 0.0
2017-Oct-16 00:30N 50°58' E 001°52'0 0.0
2017-Oct-16 00:00N 50°58' E 001°52'0 0.0
2017-Oct-15 23:30N 50°58' E 001°52'0 0.0
2017-Oct-15 23:00N 50°58' E 001°52'0 0.0
2017-Oct-15 22:30N 50°58' E 001°52'0 0.0
2017-Oct-15 22:00N 50°58' E 001°52'0 0.0
2017-Oct-15 21:30N 50°58' E 001°52'0 0.0
2017-Oct-15 21:00N 50°58' E 001°52'0 0.0
2017-Oct-15 20:30N 50°58' E 001°52'0 0.0
2017-Oct-15 20:00N 50°58' E 001°52'0 0.2
2017-Oct-15 19:30N 50°58' E 001°52'815.9
2017-Oct-15 19:00N 50°59' E 001°39'917.8
2017-Oct-15 18:30N 51°04' E 001°27'610.8
2017-Oct-15 17:59N 51°07' E 001°20'0 0.0
2017-Oct-15 17:30N 51°07' E 001°20'4 9.0
2017-Oct-15 17:01N 51°06' E 001°27'918.2
2017-Oct-15 16:31N 51°01' E 001°39'816.1
2017-Oct-15 16:00N 50°58' E 001°51'0 0.3
2017-Oct-15 15:30N 50°58' E 001°51'0 0.0
2017-Oct-15 15:00N 50°58' E 001°51'1514.8
2017-Oct-15 14:01N 51°03' E 001°29'713.6
2017-Oct-15 13:30N 51°07' E 001°20'0 0.0
2017-Oct-15 13:00N 51°07' E 001°20'3 5.1
2017-Oct-15 12:30N 51°07' E 001°24'917.7
2017-Oct-15 12:01N 51°02' E 001°36'917.0
2017-Oct-15 11:30N 50°58' E 001°48'2 3.7
2017-Oct-15 11:00N 50°58' E 001°51'0 0.0
2017-Oct-15 10:30N 50°58' E 001°51'611.5
2017-Oct-15 10:00N 50°58' E 001°42'1019.2
2017-Oct-15 09:30N 51°04' E 001°30'713.3
2017-Oct-15 08:59N 51°07' E 001°20'0 0.0
2017-Oct-15 08:26N 51°07' E 001°20'1 2.4
2017-Oct-15 07:59N 51°07' E 001°22'918.4
2017-Oct-15 07:30N 51°03' E 001°34'918.4
2017-Oct-15 07:00N 50°58' E 001°47'3 5.5
2017-Oct-15 06:30N 50°58' E 001°51'0 0.0
2017-Oct-15 06:00N 50°58' E 001°51'0 0.0
2017-Oct-15 05:30N 50°58' E 001°51'0 0.0
2017-Oct-15 05:00N 50°58' E 001°51'0 0.0
2017-Oct-15 04:30N 50°58' E 001°51'1 1.2
2017-Oct-15 04:00N 50°58' E 001°52'0 0.0
2017-Oct-15 03:30N 50°58' E 001°52'0 0.0
2017-Oct-15 03:00N 50°58' E 001°52'0 0.0
2017-Oct-15 02:30N 50°58' E 001°52'0 0.0
2017-Oct-15 02:00N 50°58' E 001°52'0 0.0
2017-Oct-15 01:30N 50°58' E 001°52'0 0.0
2017-Oct-15 01:00N 50°58' E 001°52'0 0.0
2017-Oct-15 00:30N 50°58' E 001°52'0 0.0
2017-Oct-15 00:00N 50°58' E 001°52'0 0.0
2017-Oct-14 23:30N 50°58' E 001°52'0 0.0
2017-Oct-14 23:00N 50°58' E 001°52'0 0.0
2017-Oct-14 22:30N 50°58' E 001°52'0 0.0
2017-Oct-14 22:00N 50°58' E 001°52'0 0.0
2017-Oct-14 21:30N 50°58' E 001°52'0 0.0
2017-Oct-14 21:00N 50°58' E 001°52'0 0.0
2017-Oct-14 20:30N 50°58' E 001°52'1 1.1
2017-Oct-14 20:00N 50°58' E 001°51'0 0.0
2017-Oct-14 19:30N 50°58' E 001°51'714.1
2017-Oct-14 19:01N 50°59' E 001°40'1019.0
2017-Oct-14 18:30N 51°04' E 001°27'511.0
2017-Oct-14 18:00N 51°07' E 001°20'0 0.0
2017-Oct-14 17:29N 51°07' E 001°20'3 7.1
2017-Oct-14 17:00N 51°06' E 001°25'1019.6
2017-Oct-14 16:31N 51°01' E 001°38'917.0
2017-Oct-14 16:01N 50°58' E 001°51'0 0.3
2017-Oct-14 15:31N 50°58' E 001°51'1 2.7
2017-Oct-14 15:01N 50°58' E 001°49'917.5
2017-Oct-14 14:30N 51°00' E 001°35'918.8
2017-Oct-14 14:00N 51°06' E 001°24'3 5.4
2017-Oct-14 13:31N 51°07' E 001°20'0 0.0
2017-Oct-14 13:00N 51°07' E 001°20'5 9.4
2017-Oct-14 12:30N 51°06' E 001°27'1019.5
2017-Oct-14 12:00N 51°00' E 001°40'714.4
2017-Oct-14 11:30N 50°58' E 001°51'0 0.4
2017-Oct-14 11:00N 50°58' E 001°51'0 0.0
2017-Oct-14 10:30N 50°58' E 001°51'713.4
2017-Oct-14 10:00N 50°59' E 001°40'1019.5
2017-Oct-14 09:30N 51°04' E 001°27'611.3
2017-Oct-14 09:00N 51°07' E 001°20'0 0.0
2017-Oct-14 08:31N 51°07' E 001°20'0 0.2
2017-Oct-14 07:59N 51°07' E 001°20'715.8
2017-Oct-14 07:30N 51°04' E 001°31'917.3
2017-Oct-14 07:00N 50°59' E 001°42'611.1
2017-Oct-14 06:30N 50°58' E 001°51'0 0.0
2017-Oct-14 06:00N 50°58' E 001°51'2 3.3
2017-Oct-14 05:31N 50°58' E 001°48'918.9
2017-Oct-14 05:00N 51°01' E 001°34'1019.1
2017-Oct-14 04:31N 51°07' E 001°22'1 2.4
2017-Oct-14 04:00N 51°07' E 001°20'0 0.0
2017-Oct-14 03:30N 51°07' E 001°20'0 0.1
2017-Oct-14 03:00N 51°07' E 001°20'714.4
2017-Oct-14 02:30N 51°04' E 001°30'917.7
2017-Oct-14 02:00N 50°59' E 001°42'612.2
2017-Oct-14 01:30N 50°58' E 001°52'0 0.0
2017-Oct-14 01:00N 50°58' E 001°52'0 0.0
2017-Oct-14 00:30N 50°58' E 001°52'0 0.4
2017-Oct-14 00:01N 50°58' E 001°52'0 0.0
2017-Oct-13 23:30N 50°58' E 001°52'0 0.0
2017-Oct-13 23:01N 50°58' E 001°52'0 0.0
2017-Oct-13 22:30N 50°58' E 001°52'0 0.0
2017-Oct-13 22:00N 50°58' E 001°52'0 0.0
2017-Oct-13 21:30N 50°58' E 001°52'0 0.0
2017-Oct-13 21:00N 50°58' E 001°52'0 0.0
2017-Oct-13 20:31N 50°58' E 001°52'0 0.4
2017-Oct-13 20:01N 50°58' E 001°52'0 0.1
2017-Oct-13 19:29N 50°58' E 001°52'714.1
2017-Oct-13 19:00N 50°59' E 001°41'1019.9
2017-Oct-13 18:30N 51°04' E 001°28'611.5
2017-Oct-13 18:00N 51°07' E 001°20'0 0.0
2017-Oct-13 17:30N 51°07' E 001°20'510.1
2017-Oct-13 17:00N 51°06' E 001°28'918.6
2017-Oct-13 16:30N 51°00' E 001°40'714.6
2017-Oct-13 16:01N 50°58' E 001°51'0 0.4
2017-Oct-13 15:30N 50°58' E 001°51'0 1.0
2017-Oct-13 15:01N 50°58' E 001°50'918.5
2017-Oct-13 14:30N 51°00' E 001°36'919.0
2017-Oct-13 14:01N 51°05' E 001°23'3 5.5
2017-Oct-13 13:29N 51°07' E 001°20'0 0.0
2017-Oct-13 12:59N 51°07' E 001°20'3 6.5
2017-Oct-13 12:30N 51°06' E 001°25'1019.3
2017-Oct-13 12:00N 51°00' E 001°37'917.9
2017-Oct-13 11:30N 50°58' E 001°51'0 0.7
2017-Oct-13 11:00N 50°58' E 001°51'0 0.1
2017-Oct-13 10:30N 50°58' E 001°51'815.9
2017-Oct-13 10:00N 50°59' E 001°38'1019.0
2017-Oct-13 09:30N 51°05' E 001°26'5 9.2
2017-Oct-13 09:00N 51°07' E 001°20'0 0.0
2017-Oct-13 08:28N 51°07' E 001°20'1 2.5
2017-Oct-13 08:00N 51°07' E 001°22'917.5
2017-Oct-13 07:30N 51°04' E 001°35'918.2
2017-Oct-13 07:00N 50°58' E 001°45'3 6.9
2017-Oct-13 06:30N 50°58' E 001°51'0 0.0
2017-Oct-13 06:01N 50°58' E 001°51'2 3.7
2017-Oct-13 05:30N 50°58' E 001°48'1019.1
2017-Oct-13 05:00N 51°02' E 001°34'1019.2
2017-Oct-13 04:30N 51°07' E 001°21'1 1.5
2017-Oct-13 03:59N 51°07' E 001°20'0 0.0
2017-Oct-13 03:30N 51°07' E 001°20'0 0.1
2017-Oct-13 02:59N 51°07' E 001°20'613.5
2017-Oct-13 02:30N 51°04' E 001°29'917.5
2017-Oct-13 02:00N 50°59' E 001°40'714.1
2017-Oct-13 01:30N 50°58' E 001°51'0 0.4
2017-Oct-13 01:00N 50°58' E 001°52'0 0.0
2017-Oct-13 00:30N 50°58' E 001°52'0 0.0
2017-Oct-13 00:00N 50°58' E 001°52'0 0.0
2017-Oct-12 23:30N 50°58' E 001°52'0 0.0
2017-Oct-12 23:00N 50°58' E 001°52'0 0.0
2017-Oct-12 22:30N 50°58' E 001°52'0 0.0
2017-Oct-12 22:00N 50°58' E 001°52'0 0.0
2017-Oct-12 21:30N 50°58' E 001°52'0 0.0
2017-Oct-12 21:00N 50°58' E 001°52'0 0.0
2017-Oct-12 20:30N 50°58' E 001°52'0 0.0
2017-Oct-12 20:00N 50°58' E 001°52'1 2.2
2017-Oct-12 19:30N 50°58' E 001°50'816.9
2017-Oct-12 19:00N 51°00' E 001°37'1019.4
2017-Oct-12 18:30N 51°06' E 001°24'3 6.1
2017-Oct-12 18:00N 51°07' E 001°20'0 0.1
2017-Oct-12 17:30N 51°07' E 001°20'713.9
2017-Oct-12 17:00N 51°04' E 001°30'917.9
2017-Oct-12 16:30N 50°59' E 001°42'611.9
2017-Oct-12 16:00N 50°58' E 001°51'0 0.0
2017-Oct-12 15:30N 50°58' E 001°51'4 9.0
2017-Oct-12 15:00N 50°58' E 001°44'1019.3
2017-Oct-12 14:30N 51°03' E 001°30'815.5
2017-Oct-12 14:00N 51°07' E 001°20'0 0.0
2017-Oct-12 13:30N 51°07' E 001°20'0 0.2
2017-Oct-12 13:00N 51°07' E 001°20'816.9
2017-Oct-12 12:30N 51°05' E 001°33'918.9
2017-Oct-12 12:00N 50°58' E 001°44'4 8.4
2017-Oct-12 11:31N 50°58' E 001°51'0 0.0
2017-Oct-12 11:00N 50°58' E 001°51'0 1.0
2017-Oct-12 10:31N 50°58' E 001°50'816.8
2017-Oct-12 10:00N 50°58' E 001°37'918.8
2017-Oct-12 09:30N 51°04' E 001°26'5 9.2
2017-Oct-12 09:00N 51°07' E 001°20'0 0.0
2017-Oct-12 08:30N 51°07' E 001°20'1 1.1
2017-Oct-12 08:00N 51°07' E 001°21'918.0
2017-Oct-12 07:30N 51°03' E 001°33'918.5
2017-Oct-12 07:01N 50°58' E 001°46'3 6.6
2017-Oct-12 06:30N 50°58' E 001°51'0 0.0
2017-Oct-12 06:00N 50°58' E 001°51'0 0.0
2017-Oct-12 05:31N 50°58' E 001°51'0 0.0
2017-Oct-12 05:01N 50°58' E 001°51'0 0.0
2017-Oct-12 04:31N 50°58' E 001°51'0 0.0
2017-Oct-12 04:01N 50°58' E 001°51'0 0.0
2017-Oct-12 03:31N 50°58' E 001°51'0 0.0
2017-Oct-12 03:01N 50°58' E 001°51'0 0.0
2017-Oct-12 02:31N 50°58' E 001°51'0 0.0
2017-Oct-12 02:01N 50°58' E 001°51'0 0.0
2017-Oct-12 01:31N 50°58' E 001°51'0 0.0
2017-Oct-12 01:01N 50°58' E 001°51'0 0.0
2017-Oct-12 00:31N 50°58' E 001°51'0 0.0
2017-Oct-12 00:00N 50°58' E 001°51'0 0.0
2017-Oct-11 23:30N 50°58' E 001°51'0 0.0
2017-Oct-11 23:00N 50°58' E 001°51'0 0.0
2017-Oct-11 22:30N 50°58' E 001°51'0 0.0
2017-Oct-11 22:01N 50°58' E 001°51'0 0.0
2017-Oct-11 21:31N 50°58' E 001°51'0 0.0
2017-Oct-11 21:00N 50°58' E 001°51'0 0.0
2017-Oct-11 20:31N 50°58' E 001°51'0 0.0
2017-Oct-11 20:01N 50°58' E 001°51'510.3
2017-Oct-11 19:30N 50°58' E 001°43'919.1
2017-Oct-11 19:01N 51°03' E 001°30'714.9
2017-Oct-11 18:30N 51°07' E 001°20'0 0.0
2017-Oct-11 17:56N 51°07' E 001°20'2 4.2
2017-Oct-11 17:31N 51°07' E 001°23'816.7
2017-Oct-11 17:00N 51°03' E 001°35'11 0.7
2017-Oct-11 00:00N 50°58' E 001°51'0 0.0
2017-Oct-10 23:30N 50°58' E 001°51'0 0.0
2017-Oct-10 23:00N 50°58' E 001°51'0 0.0
2017-Oct-10 22:30N 50°58' E 001°51'0 0.0
2017-Oct-10 22:00N 50°58' E 001°51'0 0.0
2017-Oct-10 21:30N 50°58' E 001°51'0 0.0
2017-Oct-10 21:00N 50°58' E 001°51'0 0.0
2017-Oct-10 20:30N 50°58' E 001°51'0 0.0
2017-Oct-10 20:00N 50°58' E 001°51'  
Track history (hours):
 
Tides and Currents Weather Stations Pressure Air Temp Water Temp Dewpoint Dewpoint Depression Visibility Wind Speed Wind Dir Waves Ship Positions

Pride Of Burgundy

Operator: P & O Ferries

Last reported at 2017-Oct-20 19:31 UTC. Time now 2017-Oct-20 19:52 UTC.
Position N 51°04' E 001°35'.

Length 180 m; draft 6.2 m.

Type: Passenger vessel. MMSI: 232001470.

Date/timePositionNaut miles runAvg speedWind from/ knotsBaromVisibWave heightAir tempDewpointWater temp
2017-Oct-20 19:31N 51°04' E 001°35'918.8
2017-Oct-20 19:00N 50°58' E 001°47'3 5.5
2017-Oct-20 18:30N 50°58' E 001°51'1 1.3
2017-Oct-20 18:00N 50°58' E 001°50'815.1
2017-Oct-20 17:30N 51°00' E 001°38'918.3
2017-Oct-20 17:00N 51°07' E 001°29'510.7
2017-Oct-20 16:30N 51°07' E 001°20'0 0.2
2017-Oct-20 16:00N 51°07' E 001°20'0 0.0
2017-Oct-20 15:30N 51°07' E 001°20'2 4.2
2017-Oct-20 15:00N 51°08' E 001°23'9 9.3
2017-Oct-20 14:00N 51°02' E 001°35'815.9
2017-Oct-20 13:31N 50°58' E 001°46'3 6.8
2017-Oct-20 13:00N 50°58' E 001°51'0 0.0
2017-Oct-20 12:30N 50°58' E 001°51'2 3.2
2017-Oct-20 12:01N 50°58' E 001°49'5 9.7
2017-Oct-20 11:30N 50°59' E 001°41'2 4.0
2017-Oct-20 11:01N 51°01' E 001°41'917.7
2017-Oct-20 10:30N 51°03' E 001°28'612.6
2017-Oct-20 10:00N 51°07' E 001°20'0 0.0
2017-Oct-20 09:30N 51°07' E 001°20'0 0.2
2017-Oct-20 09:01N 51°07' E 001°20'4 7.1
2017-Oct-20 08:31N 51°08' E 001°26'2 3.1
2017-Oct-20 08:01N 51°06' E 001°26'612.4
2017-Oct-20 07:31N 51°03' E 001°34'816.8
2017-Oct-20 07:01N 50°58' E 001°45'4 7.6
2017-Oct-20 06:31N 50°58' E 001°51'0 0.0
2017-Oct-20 06:01N 50°58' E 001°51'1 2.0
2017-Oct-20 05:31N 50°58' E 001°49'815.9
2017-Oct-20 05:00N 50°59' E 001°37'817.0
2017-Oct-20 04:30N 51°04' E 001°26'5 9.9
2017-Oct-20 04:00N 51°07' E 001°20'0 0.0
2017-Oct-20 03:29N 51°07' E 001°20'2 3.3
2017-Oct-20 03:00N 51°07' E 001°23'611.7
2017-Oct-20 02:31N 51°05' E 001°31'816.6
2017-Oct-20 02:00N 51°00' E 001°42'612.1
2017-Oct-20 01:30N 50°58' E 001°51'0 0.1
2017-Oct-20 01:00N 50°58' E 001°51'0 0.0
2017-Oct-20 00:30N 50°58' E 001°51'0 0.0
2017-Oct-20 00:00N 50°58' E 001°51'0 0.0
2017-Oct-19 23:30N 50°58' E 001°51'0 0.0
2017-Oct-19 23:00N 50°58' E 001°51'0 0.0
2017-Oct-19 22:30N 50°58' E 001°51'0 0.0
2017-Oct-19 22:00N 50°58' E 001°51'0 0.0
2017-Oct-19 21:30N 50°58' E 001°51'0 0.0
2017-Oct-19 21:00N 50°58' E 001°51'0 0.0
2017-Oct-19 20:30N 50°58' E 001°51'0 0.0
2017-Oct-19 20:00N 50°58' E 001°51'0 0.8
2017-Oct-19 19:31N 50°58' E 001°51'816.2
2017-Oct-19 19:01N 50°59' E 001°38'918.0
2017-Oct-19 18:31N 51°04' E 001°26'5 9.0
2017-Oct-19 17:59N 51°07' E 001°20'0 0.0
2017-Oct-19 17:30N 51°07' E 001°20'3 6.2
2017-Oct-19 17:01N 51°06' E 001°24'1019.4
2017-Oct-19 16:31N 51°01' E 001°37'917.8
2017-Oct-19 16:00N 50°58' E 001°51'0 0.3
2017-Oct-19 15:30N 50°58' E 001°51'1 2.4
2017-Oct-19 15:00N 50°58' E 001°49'918.6
2017-Oct-19 14:30N 50°59' E 001°34'918.6
2017-Oct-19 14:00N 51°06' E 001°23'3 5.6
2017-Oct-19 13:30N 51°07' E 001°20'0 0.0
2017-Oct-19 12:59N 51°07' E 001°20'510.0
2017-Oct-19 12:31N 51°07' E 001°28'918.3
2017-Oct-19 12:01N 51°01' E 001°38'815.9
2017-Oct-19 11:30N 50°58' E 001°50'0 1.0
2017-Oct-19 11:00N 50°58' E 001°51'0 0.0
2017-Oct-19 10:30N 50°58' E 001°51'714.7
2017-Oct-19 10:00N 50°58' E 001°39'918.1
2017-Oct-19 09:30N 51°04' E 001°29'712.9
2017-Oct-19 09:00N 51°07' E 001°20'0 0.0
2017-Oct-19 08:30N 51°07' E 001°20'0 0.3
2017-Oct-19 08:00N 51°07' E 001°20'917.6
2017-Oct-19 07:30N 51°03' E 001°33'1019.6
2017-Oct-19 07:00N 50°58' E 001°46'3 6.9
2017-Oct-19 06:30N 50°58' E 001°51'0 0.0
2017-Oct-19 06:00N 50°58' E 001°51'3 5.1
2017-Oct-19 05:31N 50°58' E 001°47'816.5
2017-Oct-19 05:00N 51°00' E 001°34'918.9
2017-Oct-19 04:30N 51°06' E 001°23'2 4.0
2017-Oct-19 04:00N 51°07' E 001°20'0 0.0
2017-Oct-19 03:30N 51°07' E 001°20'0 0.1
2017-Oct-19 03:00N 51°07' E 001°20'713.8
2017-Oct-19 02:31N 51°05' E 001°30'816.3
2017-Oct-19 02:01N 50°60' E 001°41'713.2
2017-Oct-19 01:31N 50°58' E 001°51'0 0.3
2017-Oct-19 01:00N 50°58' E 001°51'0 0.0
2017-Oct-19 00:30N 50°58' E 001°51'0 0.0
2017-Oct-19 00:00N 50°58' E 001°51'0 0.0
2017-Oct-18 23:30N 50°58' E 001°51'0 0.0
2017-Oct-18 23:00N 50°58' E 001°51'0 0.0
2017-Oct-18 22:30N 50°58' E 001°51'0 0.6
2017-Oct-18 22:00N 50°58' E 001°51'0 0.0
2017-Oct-18 21:30N 50°58' E 001°51'0 0.0
2017-Oct-18 21:00N 50°58' E 001°51'0 0.0
2017-Oct-18 20:30N 50°58' E 001°51'0 0.2
2017-Oct-18 20:00N 50°58' E 001°51'4 8.4
2017-Oct-18 19:30N 50°58' E 001°45'713.3
2017-Oct-18 19:01N 50°59' E 001°34'816.9
2017-Oct-18 18:31N 51°05' E 001°25'4 7.4
2017-Oct-18 18:00N 51°07' E 001°20'0 0.0
2017-Oct-18 17:30N 51°07' E 001°20'4 7.7
2017-Oct-18 17:00N 51°06' E 001°26'1019.7
2017-Oct-18 16:30N 51°02' E 001°40'815.8
2017-Oct-18 16:01N 50°58' E 001°51'0 0.2
2017-Oct-18 15:30N 50°58' E 001°51'0 0.9
2017-Oct-18 15:00N 50°58' E 001°50'1616.4
2017-Oct-18 14:01N 51°05' E 001°26'5 9.6
2017-Oct-18 13:30N 51°07' E 001°20'0 0.0
2017-Oct-18 13:00N 51°07' E 001°20'3 5.9
2017-Oct-18 12:30N 51°06' E 001°24'918.3
2017-Oct-18 12:00N 51°02' E 001°37'816.7
2017-Oct-18 11:30N 50°58' E 001°49'1 2.5
2017-Oct-18 11:00N 50°58' E 001°51'0 0.0
2017-Oct-18 10:30N 50°58' E 001°51'815.2
2017-Oct-18 10:00N 50°59' E 001°39'1019.2
2017-Oct-18 09:30N 51°05' E 001°27'5 9.6
2017-Oct-18 09:00N 51°07' E 001°20'0 0.0
2017-Oct-18 08:29N 51°07' E 001°20'0 0.3
2017-Oct-18 08:00N 51°07' E 001°20'917.1
2017-Oct-18 07:30N 51°03' E 001°32'1020.0
2017-Oct-18 07:01N 50°58' E 001°46'3 6.8
2017-Oct-18 06:30N 50°58' E 001°51'0 0.0
2017-Oct-18 06:00N 50°58' E 001°51'2 4.8
2017-Oct-18 05:30N 50°58' E 001°47'816.2
2017-Oct-18 05:00N 51°00' E 001°35'918.4
2017-Oct-18 04:30N 51°06' E 001°24'3 5.3
2017-Oct-18 04:00N 51°07' E 001°20'0 0.0
2017-Oct-18 03:30N 51°07' E 001°20'0 0.0
2017-Oct-18 03:00N 51°07' E 001°20'510.6
2017-Oct-18 02:31N 51°06' E 001°28'918.0
2017-Oct-18 02:01N 50°60' E 001°39'815.3
2017-Oct-18 01:31N 50°58' E 001°51'0 0.4
2017-Oct-18 01:01N 50°58' E 001°51'0 0.0
2017-Oct-18 00:30N 50°58' E 001°51'0 0.0
2017-Oct-18 00:00N 50°58' E 001°51'0 0.0
2017-Oct-17 23:30N 50°58' E 001°51'0 0.0
2017-Oct-17 23:01N 50°58' E 001°51'0 0.0
2017-Oct-17 22:30N 50°58' E 001°51'0 0.0
2017-Oct-17 22:00N 50°58' E 001°51'0 0.0
2017-Oct-17 21:31N 50°58' E 001°51'0 0.0
2017-Oct-17 21:01N 50°58' E 001°51'0 0.0
2017-Oct-17 20:30N 50°58' E 001°51'1 0.7
2017-Oct-17 19:31N 50°58' E 001°50'918.6
2017-Oct-17 19:00N 50°59' E 001°35'918.6
2017-Oct-17 18:30N 51°04' E 001°23'4 7.4
2017-Oct-17 18:00N 51°07' E 001°20'0 0.0
2017-Oct-17 17:29N 51°07' E 001°20'510.7
2017-Oct-17 17:00N 51°05' E 001°28'1019.8
2017-Oct-17 16:31N 50°60' E 001°40'713.8
2017-Oct-17 16:01N 50°58' E 001°51'0 0.0
2017-Oct-17 15:31N 50°58' E 001°51'1 2.2
2017-Oct-17 15:00N 50°58' E 001°49'917.6
2017-Oct-17 14:30N 51°01' E 001°36'1019.7
2017-Oct-17 14:00N 51°05' E 001°22'2 4.8
2017-Oct-17 13:30N 51°07' E 001°20'0 0.0
2017-Oct-17 13:00N 51°07' E 001°20'4 8.3
2017-Oct-17 12:31N 51°07' E 001°27'816.6
2017-Oct-17 12:01N 51°02' E 001°37'816.9
2017-Oct-17 11:31N 50°58' E 001°49'1 2.8
2017-Oct-17 11:00N 50°58' E 001°51'0 0.0
2017-Oct-17 10:30N 50°58' E 001°51'612.1
2017-Oct-17 10:00N 50°59' E 001°41'1019.5
2017-Oct-17 09:30N 51°04' E 001°28'611.7
2017-Oct-17 08:58N 51°07' E 001°20'0 0.0
2017-Oct-17 08:30N 51°07' E 001°20'1 1.9
2017-Oct-17 08:00N 51°07' E 001°22'918.0
2017-Oct-17 07:30N 51°03' E 001°34'918.1
2017-Oct-17 07:00N 50°58' E 001°46'3 5.9
2017-Oct-17 06:30N 50°58' E 001°51'0 0.0
2017-Oct-17 06:00N 50°58' E 001°51'3 5.3
2017-Oct-17 05:30N 50°58' E 001°47'816.5
2017-Oct-17 05:00N 50°59' E 001°34'1019.2
2017-Oct-17 04:30N 51°06' E 001°23'2 4.4
2017-Oct-17 04:00N 51°07' E 001°20'0 0.0
2017-Oct-17 03:30N 51°07' E 001°20'0 0.2
2017-Oct-17 03:00N 51°07' E 001°20'817.1
2017-Oct-17 02:30N 51°04' E 001°32'816.1
2017-Oct-17 02:00N 50°59' E 001°43'510.3
2017-Oct-17 01:30N 50°58' E 001°51'0 0.0
2017-Oct-17 01:00N 50°58' E 001°51'0 0.0
2017-Oct-17 00:30N 50°58' E 001°51'0 0.0
2017-Oct-17 00:00N 50°58' E 001°51'0 0.0
2017-Oct-16 23:30N 50°58' E 001°51'0 0.0
2017-Oct-16 23:00N 50°58' E 001°51'0 0.0
2017-Oct-16 22:30N 50°58' E 001°51'0 0.0
2017-Oct-16 22:00N 50°58' E 001°51'0 0.0
2017-Oct-16 21:30N 50°58' E 001°51'0 0.0
2017-Oct-16 21:00N 50°58' E 001°51'0 0.0
2017-Oct-16 20:30N 50°58' E 001°51'0 0.0
2017-Oct-16 20:00N 50°58' E 001°51'2 4.5
2017-Oct-16 19:30N 50°58' E 001°47'1019.8
2017-Oct-16 19:00N 51°02' E 001°33'1018.1
2017-Oct-16 18:28N 51°07' E 001°20'0 0.4
2017-Oct-16 18:01N 51°07' E 001°20'0 0.2
2017-Oct-16 17:30N 51°07' E 001°20'816.3
2017-Oct-16 17:01N 51°03' E 001°31'1019.2
2017-Oct-16 16:31N 50°58' E 001°44'4 8.3
2017-Oct-16 16:00N 50°58' E 001°51'0 0.0
2017-Oct-16 15:30N 50°58' E 001°51'510.4
2017-Oct-16 15:00N 50°58' E 001°43'918.7
2017-Oct-16 14:31N 51°03' E 001°30'8 7.8
2017-Oct-16 13:30N 51°07' E 001°20'0 0.0
2017-Oct-16 12:58N 51°07' E 001°20'3 7.6
2017-Oct-16 12:31N 51°06' E 001°25'1019.1
2017-Oct-16 12:01N 51°01' E 001°38'816.8
2017-Oct-16 11:30N 50°58' E 001°51'0 0.5
2017-Oct-16 11:00N 50°58' E 001°51'0 0.0
2017-Oct-16 10:30N 50°58' E 001°51'816.5
2017-Oct-16 10:00N 50°58' E 001°38'918.0
2017-Oct-16 09:30N 51°04' E 001°27'611.5
2017-Oct-16 09:00N 51°07' E 001°20'0 0.0
2017-Oct-16 08:30N 51°07' E 001°20'4 8.9
2017-Oct-16 08:00N 51°07' E 001°27'918.2
2017-Oct-16 07:31N 51°03' E 001°40'816.0
2017-Oct-16 07:00N 50°58' E 001°50'1 1.7
2017-Oct-16 06:30N 50°58' E 001°52'0 0.0
2017-Oct-16 06:00N 50°58' E 001°52'0 0.0
2017-Oct-16 05:30N 50°58' E 001°52'0 0.0
2017-Oct-16 05:00N 50°58' E 001°52'0 0.0
2017-Oct-16 04:30N 50°58' E 001°52'0 0.0
2017-Oct-16 04:00N 50°58' E 001°52'0 0.0
2017-Oct-16 03:31N 50°58' E 001°52'0 0.0
2017-Oct-16 03:00N 50°58' E 001°52'0 0.0
2017-Oct-16 02:30N 50°58' E 001°52'0 0.0
2017-Oct-16 02:00N 50°58' E 001°52'0 0.0
2017-Oct-16 01:30N 50°58' E 001°52'0 0.0
2017-Oct-16 01:00N 50°58' E 001°52'0 0.0
2017-Oct-16 00:30N 50°58' E 001°52'0 0.0
2017-Oct-16 00:00N 50°58' E 001°52'0 0.0
2017-Oct-15 23:30N 50°58' E 001°52'0 0.0
2017-Oct-15 23:00N 50°58' E 001°52'0 0.0
2017-Oct-15 22:30N 50°58' E 001°52'0 0.0
2017-Oct-15 22:00N 50°58' E 001°52'0 0.0
2017-Oct-15 21:30N 50°58' E 001°52'0 0.0
2017-Oct-15 21:00N 50°58' E 001°52'0 0.0
2017-Oct-15 20:30N 50°58' E 001°52'0 0.0
2017-Oct-15 20:00N 50°58' E 001°52'0 0.2
2017-Oct-15 19:30N 50°58' E 001°52'815.9
2017-Oct-15 19:00N 50°59' E 001°39'917.8
2017-Oct-15 18:30N 51°04' E 001°27'610.8
2017-Oct-15 17:59N 51°07' E 001°20'0 0.0
2017-Oct-15 17:30N 51°07' E 001°20'4 9.0
2017-Oct-15 17:01N 51°06' E 001°27'918.2
2017-Oct-15 16:31N 51°01' E 001°39'816.1
2017-Oct-15 16:00N 50°58' E 001°51'0 0.3
2017-Oct-15 15:30N 50°58' E 001°51'0 0.0
2017-Oct-15 15:00N 50°58' E 001°51'1514.8
2017-Oct-15 14:01N 51°03' E 001°29'713.6
2017-Oct-15 13:30N 51°07' E 001°20'0 0.0
2017-Oct-15 13:00N 51°07' E 001°20'3 5.1
2017-Oct-15 12:30N 51°07' E 001°24'917.7
2017-Oct-15 12:01N 51°02' E 001°36'917.0
2017-Oct-15 11:30N 50°58' E 001°48'2 3.7
2017-Oct-15 11:00N 50°58' E 001°51'0 0.0
2017-Oct-15 10:30N 50°58' E 001°51'611.5
2017-Oct-15 10:00N 50°58' E 001°42'1019.2
2017-Oct-15 09:30N 51°04' E 001°30'713.3
2017-Oct-15 08:59N 51°07' E 001°20'0 0.0
2017-Oct-15 08:26N 51°07' E 001°20'1 2.4
2017-Oct-15 07:59N 51°07' E 001°22'918.4
2017-Oct-15 07:30N 51°03' E 001°34'918.4
2017-Oct-15 07:00N 50°58' E 001°47'3 5.5
2017-Oct-15 06:30N 50°58' E 001°51'0 0.0
2017-Oct-15 06:00N 50°58' E 001°51'0 0.0
2017-Oct-15 05:30N 50°58' E 001°51'0 0.0
2017-Oct-15 05:00N 50°58' E 001°51'0 0.0
2017-Oct-15 04:30N 50°58' E 001°51'1 1.2
2017-Oct-15 04:00N 50°58' E 001°52'0 0.0
2017-Oct-15 03:30N 50°58' E 001°52'0 0.0
2017-Oct-15 03:00N 50°58' E 001°52'0 0.0
2017-Oct-15 02:30N 50°58' E 001°52'0 0.0
2017-Oct-15 02:00N 50°58' E 001°52'0 0.0
2017-Oct-15 01:30N 50°58' E 001°52'0 0.0
2017-Oct-15 01:00N 50°58' E 001°52'0 0.0
2017-Oct-15 00:30N 50°58' E 001°52'0 0.0
2017-Oct-15 00:00N 50°58' E 001°52'0 0.0
2017-Oct-14 23:30N 50°58' E 001°52'0 0.0
2017-Oct-14 23:00N 50°58' E 001°52'0 0.0
2017-Oct-14 22:30N 50°58' E 001°52'0 0.0
2017-Oct-14 22:00N 50°58' E 001°52'0 0.0
2017-Oct-14 21:30N 50°58' E 001°52'0 0.0
2017-Oct-14 21:00N 50°58' E 001°52'0 0.0
2017-Oct-14 20:30N 50°58' E 001°52'1 1.1
2017-Oct-14 20:00N 50°58' E 001°51'0 0.0
2017-Oct-14 19:30N 50°58' E 001°51'714.1
2017-Oct-14 19:01N 50°59' E 001°40'1019.0
2017-Oct-14 18:30N 51°04' E 001°27'511.0
2017-Oct-14 18:00N 51°07' E 001°20'0 0.0
2017-Oct-14 17:29N 51°07' E 001°20'3 7.1
2017-Oct-14 17:00N 51°06' E 001°25'1019.6
2017-Oct-14 16:31N 51°01' E 001°38'917.0
2017-Oct-14 16:01N 50°58' E 001°51'0 0.3
2017-Oct-14 15:31N 50°58' E 001°51'1 2.7
2017-Oct-14 15:01N 50°58' E 001°49'917.5
2017-Oct-14 14:30N 51°00' E 001°35'918.8
2017-Oct-14 14:00N 51°06' E 001°24'3 5.4
2017-Oct-14 13:31N 51°07' E 001°20'0 0.0
2017-Oct-14 13:00N 51°07' E 001°20'5 9.4
2017-Oct-14 12:30N 51°06' E 001°27'1019.5
2017-Oct-14 12:00N 51°00' E 001°40'714.4
2017-Oct-14 11:30N 50°58' E 001°51'0 0.4
2017-Oct-14 11:00N 50°58' E 001°51'0 0.0
2017-Oct-14 10:30N 50°58' E 001°51'713.4
2017-Oct-14 10:00N 50°59' E 001°40'1019.5
2017-Oct-14 09:30N 51°04' E 001°27'611.3
2017-Oct-14 09:00N 51°07' E 001°20'0 0.0
2017-Oct-14 08:31N 51°07' E 001°20'0 0.2
2017-Oct-14 07:59N 51°07' E 001°20'715.8
2017-Oct-14 07:30N 51°04' E 001°31'917.3
2017-Oct-14 07:00N 50°59' E 001°42'611.1
2017-Oct-14 06:30N 50°58' E 001°51'0 0.0
2017-Oct-14 06:00N 50°58' E 001°51'2 3.3
2017-Oct-14 05:31N 50°58' E 001°48'918.9
2017-Oct-14 05:00N 51°01' E 001°34'1019.1
2017-Oct-14 04:31N 51°07' E 001°22'1 2.4
2017-Oct-14 04:00N 51°07' E 001°20'0 0.0
2017-Oct-14 03:30N 51°07' E 001°20'0 0.1
2017-Oct-14 03:00N 51°07' E 001°20'714.4
2017-Oct-14 02:30N 51°04' E 001°30'917.7
2017-Oct-14 02:00N 50°59' E 001°42'612.2
2017-Oct-14 01:30N 50°58' E 001°52'0 0.0
2017-Oct-14 01:00N 50°58' E 001°52'0 0.0
2017-Oct-14 00:30N 50°58' E 001°52'0 0.4
2017-Oct-14 00:01N 50°58' E 001°52'0 0.0
2017-Oct-13 23:30N 50°58' E 001°52'0 0.0
2017-Oct-13 23:01N 50°58' E 001°52'0 0.0
2017-Oct-13 22:30N 50°58' E 001°52'0 0.0
2017-Oct-13 22:00N 50°58' E 001°52'0 0.0
2017-Oct-13 21:30N 50°58' E 001°52'0 0.0
2017-Oct-13 21:00N 50°58' E 001°52'0 0.0
2017-Oct-13 20:31N 50°58' E 001°52'0 0.4
2017-Oct-13 20:01N 50°58' E 001°52'0 0.1
2017-Oct-13 19:29N 50°58' E 001°52'714.1
2017-Oct-13 19:00N 50°59' E 001°41'1019.9
2017-Oct-13 18:30N 51°04' E 001°28'611.5
2017-Oct-13 18:00N 51°07' E 001°20'0 0.0
2017-Oct-13 17:30N 51°07' E 001°20'510.1
2017-Oct-13 17:00N 51°06' E 001°28'918.6
2017-Oct-13 16:30N 51°00' E 001°40'714.6
2017-Oct-13 16:01N 50°58' E 001°51'0 0.4
2017-Oct-13 15:30N 50°58' E 001°51'0 1.0
2017-Oct-13 15:01N 50°58' E 001°50'918.5
2017-Oct-13 14:30N 51°00' E 001°36'919.0
2017-Oct-13 14:01N 51°05' E 001°23'3 5.5
2017-Oct-13 13:29N 51°07' E 001°20'0 0.0
2017-Oct-13 12:59N 51°07' E 001°20'3 6.5
2017-Oct-13 12:30N 51°06' E 001°25'1019.3
2017-Oct-13 12:00N 51°00' E 001°37'917.9
2017-Oct-13 11:30N 50°58' E 001°51'0 0.7
2017-Oct-13 11:00N 50°58' E 001°51'0 0.1
2017-Oct-13 10:30N 50°58' E 001°51'815.9
2017-Oct-13 10:00N 50°59' E 001°38'1019.0
2017-Oct-13 09:30N 51°05' E 001°26'5 9.2
2017-Oct-13 09:00N 51°07' E 001°20'0 0.0
2017-Oct-13 08:28N 51°07' E 001°20'1 2.5
2017-Oct-13 08:00N 51°07' E 001°22'917.5
2017-Oct-13 07:30N 51°04' E 001°35'918.2
2017-Oct-13 07:00N 50°58' E 001°45'3 6.9
2017-Oct-13 06:30N 50°58' E 001°51'0 0.0
2017-Oct-13 06:01N 50°58' E 001°51'2 3.7
2017-Oct-13 05:30N 50°58' E 001°48'1019.1
2017-Oct-13 05:00N 51°02' E 001°34'1019.2
2017-Oct-13 04:30N 51°07' E 001°21'1 1.5
2017-Oct-13 03:59N 51°07' E 001°20'0 0.0
2017-Oct-13 03:30N 51°07' E 001°20'0 0.1
2017-Oct-13 02:59N 51°07' E 001°20'613.5
2017-Oct-13 02:30N 51°04' E 001°29'917.5
2017-Oct-13 02:00N 50°59' E 001°40'714.1
2017-Oct-13 01:30N 50°58' E 001°51'0 0.4
2017-Oct-13 01:00N 50°58' E 001°52'0 0.0
2017-Oct-13 00:30N 50°58' E 001°52'0 0.0
2017-Oct-13 00:00N 50°58' E 001°52'0 0.0
2017-Oct-12 23:30N 50°58' E 001°52'0 0.0
2017-Oct-12 23:00N 50°58' E 001°52'0 0.0
2017-Oct-12 22:30N 50°58' E 001°52'0 0.0
2017-Oct-12 22:00N 50°58' E 001°52'0 0.0
2017-Oct-12 21:30N 50°58' E 001°52'0 0.0
2017-Oct-12 21:00N 50°58' E 001°52'0 0.0
2017-Oct-12 20:30N 50°58' E 001°52'0 0.0
2017-Oct-12 20:00N 50°58' E 001°52'1 2.2
2017-Oct-12 19:30N 50°58' E 001°50'816.9
2017-Oct-12 19:00N 51°00' E 001°37'1019.4
2017-Oct-12 18:30N 51°06' E 001°24'3 6.1
2017-Oct-12 18:00N 51°07' E 001°20'0 0.1
2017-Oct-12 17:30N 51°07' E 001°20'713.9
2017-Oct-12 17:00N 51°04' E 001°30'917.9
2017-Oct-12 16:30N 50°59' E 001°42'611.9
2017-Oct-12 16:00N 50°58' E 001°51'0 0.0
2017-Oct-12 15:30N 50°58' E 001°51'4 9.0
2017-Oct-12 15:00N 50°58' E 001°44'1019.3
2017-Oct-12 14:30N 51°03' E 001°30'815.5
2017-Oct-12 14:00N 51°07' E 001°20'0 0.0
2017-Oct-12 13:30N 51°07' E 001°20'0 0.2
2017-Oct-12 13:00N 51°07' E 001°20'816.9
2017-Oct-12 12:30N 51°05' E 001°33'918.9
2017-Oct-12 12:00N 50°58' E 001°44'4 8.4
2017-Oct-12 11:31N 50°58' E 001°51'0 0.0
2017-Oct-12 11:00N 50°58' E 001°51'0 1.0
2017-Oct-12 10:31N 50°58' E 001°50'816.8
2017-Oct-12 10:00N 50°58' E 001°37'918.8
2017-Oct-12 09:30N 51°04' E 001°26'5 9.2
2017-Oct-12 09:00N 51°07' E 001°20'0 0.0
2017-Oct-12 08:30N 51°07' E 001°20'1 1.1
2017-Oct-12 08:00N 51°07' E 001°21'918.0
2017-Oct-12 07:30N 51°03' E 001°33'918.5
2017-Oct-12 07:01N 50°58' E 001°46'3 6.6
2017-Oct-12 06:30N 50°58' E 001°51'0 0.0
2017-Oct-12 06:00N 50°58' E 001°51'0 0.0
2017-Oct-12 05:31N 50°58' E 001°51'0 0.0
2017-Oct-12 05:01N 50°58' E 001°51'0 0.0
2017-Oct-12 04:31N 50°58' E 001°51'0 0.0
2017-Oct-12 04:01N 50°58' E 001°51'0 0.0
2017-Oct-12 03:31N 50°58' E 001°51'0 0.0
2017-Oct-12 03:01N 50°58' E 001°51'0 0.0
2017-Oct-12 02:31N 50°58' E 001°51'0 0.0
2017-Oct-12 02:01N 50°58' E 001°51'0 0.0
2017-Oct-12 01:31N 50°58' E 001°51'0 0.0
2017-Oct-12 01:01N 50°58' E 001°51'0 0.0
2017-Oct-12 00:31N 50°58' E 001°51'0 0.0
2017-Oct-12 00:00N 50°58' E 001°51'0 0.0
2017-Oct-11 23:30N 50°58' E 001°51'0 0.0
2017-Oct-11 23:00N 50°58' E 001°51'0 0.0
2017-Oct-11 22:30N 50°58' E 001°51'0 0.0
2017-Oct-11 22:01N 50°58' E 001°51'0 0.0
2017-Oct-11 21:31N 50°58' E 001°51'0 0.0
2017-Oct-11 21:00N 50°58' E 001°51'0 0.0
2017-Oct-11 20:31N 50°58' E 001°51'0 0.0
2017-Oct-11 20:01N 50°58' E 001°51'510.3
2017-Oct-11 19:30N 50°58' E 001°43'919.1
2017-Oct-11 19:01N 51°03' E 001°30'714.9
2017-Oct-11 18:30N 51°07' E 001°20'0 0.0
2017-Oct-11 17:56N 51°07' E 001°20'2 4.2
2017-Oct-11 17:31N 51°07' E 001°23'816.7
2017-Oct-11 17:00N 51°03' E 001°35'11 0.7
2017-Oct-11 00:00N 50°58' E 001°51'0 0.0
2017-Oct-10 23:30N 50°58' E 001°51'0 0.0
2017-Oct-10 23:00N 50°58' E 001°51'0 0.0
2017-Oct-10 22:30N 50°58' E 001°51'0 0.0
2017-Oct-10 22:00N 50°58' E 001°51'0 0.0
2017-Oct-10 21:30N 50°58' E 001°51'0 0.0
2017-Oct-10 21:00N 50°58' E 001°51'0 0.0
2017-Oct-10 20:30N 50°58' E 001°51'0 0.0
2017-Oct-10 20:00N 50°58' E 001°51'  

Dump ship's entire track history